sensor_id;sensor_type;location;lat;lon;timestamp;P1;P2;P0
57049;PMS7003;42935;50.966;16.992;2023-02-23T00:01:54;65;44;26
57049;PMS7003;42935;50.966;16.992;2023-02-23T00:05:24;56;42;26
57049;PMS7003;42935;50.966;16.992;2023-02-23T00:08:44;60;43;26
57049;PMS7003;42935;50.966;16.992;2023-02-23T00:12:13;67;46;28
57049;PMS7003;42935;50.966;16.992;2023-02-23T00:15:33;63;43;26
57049;PMS7003;42935;50.966;16.992;2023-02-23T00:18:54;54;42;26
57049;PMS7003;42935;50.966;16.992;2023-02-23T00:22:25;61;45;27
57049;PMS7003;42935;50.966;16.992;2023-02-23T00:25:50;60;46;29
57049;PMS7003;42935;50.966;16.992;2023-02-23T00:29:14;68;48;28
57049;PMS7003;42935;50.966;16.992;2023-02-23T00:32:36;56;42;26
57049;PMS7003;42935;50.966;16.992;2023-02-23T00:36:06;65;46;27
57049;PMS7003;42935;50.966;16.992;2023-02-23T00:39:35;60;42;26
57049;PMS7003;42935;50.966;16.992;2023-02-23T00:43:00;63;47;27
57049;PMS7003;42935;50.966;16.992;2023-02-23T00:46:21;60;44;28
57049;PMS7003;42935;50.966;16.992;2023-02-23T00:49:52;59;42;26
57049;PMS7003;42935;50.966;16.992;2023-02-23T00:53:14;64;46;29
57049;PMS7003;42935;50.966;16.992;2023-02-23T00:56:38;66;47;29
57049;PMS7003;42935;50.966;16.992;2023-02-23T01:00:00;65;46;29
57049;PMS7003;42935;50.966;16.992;2023-02-23T01:03:31;66;46;27
57049;PMS7003;42935;50.966;16.992;2023-02-23T01:06:54;62;45;27
57049;PMS7003;42935;50.966;16.992;2023-02-23T01:10:19;66;45;29
57049;PMS7003;42935;50.966;16.992;2023-02-23T01:13:50;63;46;29
57049;PMS7003;42935;50.966;16.992;2023-02-23T01:17:15;65;48;29
57049;PMS7003;42935;50.966;16.992;2023-02-23T01:20:41;62;46;28
57049;PMS7003;42935;50.966;16.992;2023-02-23T01:24:07;67;46;30
57049;PMS7003;42935;50.966;16.992;2023-02-23T01:27:32;66;47;29
57049;PMS7003;42935;50.966;16.992;2023-02-23T01:31:01;64;46;26
57049;PMS7003;42935;50.966;16.992;2023-02-23T01:34:31;61;46;28
57049;PMS7003;42935;50.966;16.992;2023-02-23T01:38:00;67;48;30
57049;PMS7003;42935;50.966;16.992;2023-02-23T01:41:24;66;48;30
57049;PMS7003;42935;50.966;16.992;2023-02-23T01:48:16;71;50;32
57049;PMS7003;42935;50.966;16.992;2023-02-23T01:51:50;65;48;30
57049;PMS7003;42935;50.966;16.992;2023-02-23T01:55:13;73;50;32
57049;PMS7003;42935;50.966;16.992;2023-02-23T01:58:49;71;51;32
57049;PMS7003;42935;50.966;16.992;2023-02-23T02:02:12;69;52;32
57049;PMS7003;42935;50.966;16.992;2023-02-23T02:05:42;69;51;32
57049;PMS7003;42935;50.966;16.992;2023-02-23T02:09:12;76;53;32
57049;PMS7003;42935;50.966;16.992;2023-02-23T02:12:41;72;53;33
57049;PMS7003;42935;50.966;16.992;2023-02-23T02:42:00;73;54;33
57049;PMS7003;42935;50.966;16.992;2023-02-23T02:52:45;68;50;31
57049;PMS7003;42935;50.966;16.992;2023-02-23T02:56:14;69;48;30
57049;PMS7003;42935;50.966;16.992;2023-02-23T02:59:43;71;50;31
57049;PMS7003;42935;50.966;16.992;2023-02-23T03:07:04;67;50;32
57049;PMS7003;42935;50.966;16.992;2023-02-23T03:10:46;69;51;33
57049;PMS7003;42935;50.966;16.992;2023-02-23T03:14:32;72;50;31
57049;PMS7003;42935;50.966;16.992;2023-02-23T03:18:17;73;51;32
57049;PMS7003;42935;50.966;16.992;2023-02-23T03:26:00;66;49;30
57049;PMS7003;42935;50.966;16.992;2023-02-23T03:29:54;67;49;31
57049;PMS7003;42935;50.966;16.992;2023-02-23T03:33:38;71;52;31
57049;PMS7003;42935;50.966;16.992;2023-02-23T03:41:06;72;52;31
57049;PMS7003;42935;50.966;16.992;2023-02-23T03:44:41;73;50;32
57049;PMS7003;42935;50.966;16.992;2023-02-23T03:48:21;70;51;32
57049;PMS7003;42935;50.966;16.992;2023-02-23T03:52:04;73;51;31
57049;PMS7003;42935;50.966;16.992;2023-02-23T03:55:47;73;51;32
57049;PMS7003;42935;50.966;16.992;2023-02-23T03:59:22;70;51;31
57049;PMS7003;42935;50.966;16.992;2023-02-23T04:02:57;73;51;31
57049;PMS7003;42935;50.966;16.992;2023-02-23T04:06:37;75;55;33
57049;PMS7003;42935;50.966;16.992;2023-02-23T04:10:16;76;56;33
57049;PMS7003;42935;50.966;16.992;2023-02-23T04:13:57;75;56;34
57049;PMS7003;42935;50.966;16.992;2023-02-23T04:17:25;77;55;34
57049;PMS7003;42935;50.966;16.992;2023-02-23T04:20:53;74;54;32
57049;PMS7003;42935;50.966;16.992;2023-02-23T04:24:21;81;57;34
57049;PMS7003;42935;50.966;16.992;2023-02-23T04:27:49;80;57;35
57049;PMS7003;42935;50.966;16.992;2023-02-23T04:31:13;80;56;34
57049;PMS7003;42935;50.966;16.992;2023-02-23T04:34:48;79;58;35
57049;PMS7003;42935;50.966;16.992;2023-02-23T04:38:04;84;59;37
57049;PMS7003;42935;50.966;16.992;2023-02-23T04:41:36;87;60;38
57049;PMS7003;42935;50.966;16.992;2023-02-23T04:44:57;79;57;36
57049;PMS7003;42935;50.966;16.992;2023-02-23T04:48:21;88;60;37
57049;PMS7003;42935;50.966;16.992;2023-02-23T04:51:55;87;62;36
57049;PMS7003;42935;50.966;16.992;2023-02-23T04:55:24;88;61;38
57049;PMS7003;42935;50.966;16.992;2023-02-23T04:58:52;87;61;39
57049;PMS7003;42935;50.966;16.992;2023-02-23T05:02:16;90;61;39
57049;PMS7003;42935;50.966;16.992;2023-02-23T05:05:40;83;56;35
57049;PMS7003;42935;50.966;16.992;2023-02-23T05:09:05;91;67;40
57049;PMS7003;42935;50.966;16.992;2023-02-23T05:12:28;89;63;39
57049;PMS7003;42935;50.966;16.992;2023-02-23T05:15:48;91;68;41
57049;PMS7003;42935;50.966;16.992;2023-02-23T05:19:16;94;66;40
57049;PMS7003;42935;50.966;16.992;2023-02-23T05:22:45;78;57;34
57049;PMS7003;42935;50.966;16.992;2023-02-23T05:26:09;95;66;41
57049;PMS7003;42935;50.966;16.992;2023-02-23T05:29:35;92;65;39
57049;PMS7003;42935;50.966;16.992;2023-02-23T05:32:59;91;65;40
57049;PMS7003;42935;50.966;16.992;2023-02-23T05:36:29;92;67;40
57049;PMS7003;42935;50.966;16.992;2023-02-23T05:39:50;95;68;41
57049;PMS7003;42935;50.966;16.992;2023-02-23T05:43:18;93;68;41
57049;PMS7003;42935;50.966;16.992;2023-02-23T05:46:45;94;68;40
57049;PMS7003;42935;50.966;16.992;2023-02-23T05:50:13;99;72;41
57049;PMS7003;42935;50.966;16.992;2023-02-23T05:53:41;91;69;40
57049;PMS7003;42935;50.966;16.992;2023-02-23T05:57:02;93;67;40
57049;PMS7003;42935;50.966;16.992;2023-02-23T06:00:22;93;70;41
57049;PMS7003;42935;50.966;16.992;2023-02-23T06:03:44;100;71;40
57049;PMS7003;42935;50.966;16.992;2023-02-23T06:07:12;96;74;42
57049;PMS7003;42935;50.966;16.992;2023-02-23T06:10:34;96;73;41
57049;PMS7003;42935;50.966;16.992;2023-02-23T06:14:04;102;74;43
57049;PMS7003;42935;50.966;16.992;2023-02-23T06:17:28;101;72;42
57049;PMS7003;42935;50.966;16.992;2023-02-23T06:20:51;95;71;42
57049;PMS7003;42935;50.966;16.992;2023-02-23T06:24:15;96;74;42
57049;PMS7003;42935;50.966;16.992;2023-02-23T06:27:44;95;73;42
57049;PMS7003;42935;50.966;16.992;2023-02-23T06:31:09;103;77;44
57049;PMS7003;42935;50.966;16.992;2023-02-23T06:34:32;98;77;44
57049;PMS7003;42935;50.966;16.992;2023-02-23T06:37:53;100;79;45
57049;PMS7003;42935;50.966;16.992;2023-02-23T06:41:21;102;74;43
57049;PMS7003;42935;50.966;16.992;2023-02-23T06:44:45;100;76;43
57049;PMS7003;42935;50.966;16.992;2023-02-23T06:48:13;102;77;44
57049;PMS7003;42935;50.966;16.992;2023-02-23T06:51:34;100;77;45
57049;PMS7003;42935;50.966;16.992;2023-02-23T06:55:01;111;81;45
57049;PMS7003;42935;50.966;16.992;2023-02-23T06:58:29;101;75;44
57049;PMS7003;42935;50.966;16.992;2023-02-23T07:01:54;104;78;45
57049;PMS7003;42935;50.966;16.992;2023-02-23T07:05:18;104;80;46
57049;PMS7003;42935;50.966;16.992;2023-02-23T07:08:39;106;79;47
57049;PMS7003;42935;50.966;16.992;2023-02-23T07:12:03;104;82;47
57049;PMS7003;42935;50.966;16.992;2023-02-23T07:15:31;94;70;42
57049;PMS7003;42935;50.966;16.992;2023-02-23T07:18:59;106;82;47
57049;PMS7003;42935;50.966;16.992;2023-02-23T07:22:27;107;83;46
57049;PMS7003;42935;50.966;16.992;2023-02-23T07:25:56;95;76;46
57049;PMS7003;42935;50.966;16.992;2023-02-23T07:29:22;114;82;48
57049;PMS7003;42935;50.966;16.992;2023-02-23T07:32:46;104;81;47
57049;PMS7003;42935;50.966;16.992;2023-02-23T07:36:15;102;77;45
57049;PMS7003;42935;50.966;16.992;2023-02-23T07:39:42;110;81;48
57049;PMS7003;42935;50.966;16.992;2023-02-23T07:43:07;97;77;44
57049;PMS7003;42935;50.966;16.992;2023-02-23T07:46:35;101;76;46
57049;PMS7003;42935;50.966;16.992;2023-02-23T07:50:00;106;81;46
57049;PMS7003;42935;50.966;16.992;2023-02-23T07:53:30;99;78;44
57049;PMS7003;42935;50.966;16.992;2023-02-23T07:56:45;94;77;43
57049;PMS7003;42935;50.966;16.992;2023-02-23T08:00:10;104;77;44
57049;PMS7003;42935;50.966;16.992;2023-02-23T08:03:40;102;78;44
57049;PMS7003;42935;50.966;16.992;2023-02-23T08:07:11;102;78;45
57049;PMS7003;42935;50.966;16.992;2023-02-23T08:10:38;95;71;41
57049;PMS7003;42935;50.966;16.992;2023-02-23T08:13:59;98;74;43
57049;PMS7003;42935;50.966;16.992;2023-02-23T08:17:27;95;71;41
57049;PMS7003;42935;50.966;16.992;2023-02-23T08:20:46;97;76;41
57049;PMS7003;42935;50.966;16.992;2023-02-23T08:24:08;94;75;43
57049;PMS7003;42935;50.966;16.992;2023-02-23T08:27:37;100;76;44
57049;PMS7003;42935;50.966;16.992;2023-02-23T08:30:57;95;74;44
57049;PMS7003;42935;50.966;16.992;2023-02-23T08:34:15;100;76;44
57049;PMS7003;42935;50.966;16.992;2023-02-23T08:37:40;94;71;42
57049;PMS7003;42935;50.966;16.992;2023-02-23T08:41:02;91;70;41
57049;PMS7003;42935;50.966;16.992;2023-02-23T08:44:27;94;70;41
57049;PMS7003;42935;50.966;16.992;2023-02-23T08:47:53;90;70;40
57049;PMS7003;42935;50.966;16.992;2023-02-23T08:51:19;94;71;41
57049;PMS7003;42935;50.966;16.992;2023-02-23T08:54:43;92;72;42
57049;PMS7003;42935;50.966;16.992;2023-02-23T08:58:40;94;72;41
57049;PMS7003;42935;50.966;16.992;2023-02-23T09:02:06;87;66;40
57049;PMS7003;42935;50.966;16.992;2023-02-23T09:05:38;92;71;40
57049;PMS7003;42935;50.966;16.992;2023-02-23T09:09:12;89;69;40
57049;PMS7003;42935;50.966;16.992;2023-02-23T09:12:39;86;68;40
57049;PMS7003;42935;50.966;16.992;2023-02-23T09:16:04;88;67;39
57049;PMS7003;42935;50.966;16.992;2023-02-23T09:19:28;97;73;41
57049;PMS7003;42935;50.966;16.992;2023-02-23T09:22:52;89;66;39
57049;PMS7003;42935;50.966;16.992;2023-02-23T09:26:13;89;66;39
57049;PMS7003;42935;50.966;16.992;2023-02-23T09:29:38;86;69;40
57049;PMS7003;42935;50.966;16.992;2023-02-23T09:33:05;74;58;33
57049;PMS7003;42935;50.966;16.992;2023-02-23T09:36:33;87;69;39
57049;PMS7003;42935;50.966;16.992;2023-02-23T09:40:01;86;66;40
57049;PMS7003;42935;50.966;16.992;2023-02-23T09:47:03;87;66;38
57049;PMS7003;42935;50.966;16.992;2023-02-23T09:50:39;87;65;39
57049;PMS7003;42935;50.966;16.992;2023-02-23T09:54:09;85;65;38
57049;PMS7003;42935;50.966;16.992;2023-02-23T09:57:38;88;67;39
57049;PMS7003;42935;50.966;16.992;2023-02-23T10:08:06;79;60;38
57049;PMS7003;42935;50.966;16.992;2023-02-23T10:11:39;80;60;37
57049;PMS7003;42935;50.966;16.992;2023-02-23T10:18:53;83;62;38
57049;PMS7003;42935;50.966;16.992;2023-02-23T10:22:26;84;64;38
57049;PMS7003;42935;50.966;16.992;2023-02-23T10:25:55;83;61;36
57049;PMS7003;42935;50.966;16.992;2023-02-23T10:33:00;81;58;37
57049;PMS7003;42935;50.966;16.992;2023-02-23T10:36:38;85;60;37
57049;PMS7003;42935;50.966;16.992;2023-02-23T10:40:13;82;60;37
57049;PMS7003;42935;50.966;16.992;2023-02-23T10:43:43;83;59;37
57049;PMS7003;42935;50.966;16.992;2023-02-23T10:47:13;80;59;35
57049;PMS7003;42935;50.966;16.992;2023-02-23T10:50:42;84;60;36
57049;PMS7003;42935;50.966;16.992;2023-02-23T10:57:45;78;58;36
57049;PMS7003;42935;50.966;16.992;2023-02-23T11:01:12;76;58;36
57049;PMS7003;42935;50.966;16.992;2023-02-23T11:05:26;75;56;34
57049;PMS7003;42935;50.966;16.992;2023-02-23T11:08:49;74;55;35
57049;PMS7003;42935;50.966;16.992;2023-02-23T11:12:17;75;56;34
57049;PMS7003;42935;50.966;16.992;2023-02-23T11:15:41;74;54;34
57049;PMS7003;42935;50.966;16.992;2023-02-23T11:19:16;76;56;35
57049;PMS7003;42935;50.966;16.992;2023-02-23T11:22:37;70;53;33
57049;PMS7003;42935;50.966;16.992;2023-02-23T11:26:38;71;54;34
57049;PMS7003;42935;50.966;16.992;2023-02-23T11:30:05;77;56;34
57049;PMS7003;42935;50.966;16.992;2023-02-23T11:33:28;68;52;33
57049;PMS7003;42935;50.966;16.992;2023-02-23T11:40:40;75;56;33
57049;PMS7003;42935;50.966;16.992;2023-02-23T11:47:48;72;52;32
57049;PMS7003;42935;50.966;16.992;2023-02-23T11:55:04;67;51;32
57049;PMS7003;42935;50.966;16.992;2023-02-23T12:01:49;74;53;33
57049;PMS7003;42935;50.966;16.992;2023-02-23T12:08:43;69;51;32
57049;PMS7003;42935;50.966;16.992;2023-02-23T12:12:16;69;52;32
57049;PMS7003;42935;50.966;16.992;2023-02-23T12:15:44;64;49;30
57049;PMS7003;42935;50.966;16.992;2023-02-23T12:22:44;71;53;32
57049;PMS7003;42935;50.966;16.992;2023-02-23T12:26:19;68;51;32
57049;PMS7003;42935;50.966;16.992;2023-02-23T12:36:59;68;52;32
57049;PMS7003;42935;50.966;16.992;2023-02-23T12:40:34;68;52;31
57049;PMS7003;42935;50.966;16.992;2023-02-23T12:44:07;67;50;31
57049;PMS7003;42935;50.966;16.992;2023-02-23T12:47:36;69;50;31
57049;PMS7003;42935;50.966;16.992;2023-02-23T12:51:15;70;52;32
57049;PMS7003;42935;50.966;16.992;2023-02-23T12:54:44;68;51;33
57049;PMS7003;42935;50.966;16.992;2023-02-23T13:01:43;64;51;32
57049;PMS7003;42935;50.966;16.992;2023-02-23T13:05:19;70;52;32
57049;PMS7003;42935;50.966;16.992;2023-02-23T13:19:49;65;48;30
57049;PMS7003;42935;50.966;16.992;2023-02-23T13:23:25;62;46;30
57049;PMS7003;42935;50.966;16.992;2023-02-23T13:30:29;64;48;30
57049;PMS7003;42935;50.966;16.992;2023-02-23T13:33:55;61;48;30
57049;PMS7003;42935;50.966;16.992;2023-02-23T13:37:27;68;51;32
57049;PMS7003;42935;50.966;16.992;2023-02-23T13:44:31;61;45;27
57049;PMS7003;42935;50.966;16.992;2023-02-23T13:48:05;64;49;31
57049;PMS7003;42935;50.966;16.992;2023-02-23T13:51:42;68;50;32
57049;PMS7003;42935;50.966;16.992;2023-02-23T14:02:24;74;54;33
57049;PMS7003;42935;50.966;16.992;2023-02-23T14:06:27;70;52;31
57049;PMS7003;42935;50.966;16.992;2023-02-23T14:09:52;68;49;30
57049;PMS7003;42935;50.966;16.992;2023-02-23T14:13:33;65;50;31
57049;PMS7003;42935;50.966;16.992;2023-02-23T14:24:23;70;51;32
57049;PMS7003;42935;50.966;16.992;2023-02-23T14:27:44;70;51;32
57049;PMS7003;42935;50.966;16.992;2023-02-23T14:38:24;65;50;31
57049;PMS7003;42935;50.966;16.992;2023-02-23T14:42:05;65;51;32
57049;PMS7003;42935;50.966;16.992;2023-02-23T14:45:25;65;49;30
57049;PMS7003;42935;50.966;16.992;2023-02-23T14:48:58;66;50;31
57049;PMS7003;42935;50.966;16.992;2023-02-23T14:52:46;63;47;30
57049;PMS7003;42935;50.966;16.992;2023-02-23T14:55:58;70;48;30
57049;PMS7003;42935;50.966;16.992;2023-02-23T14:59:37;67;50;31
57049;PMS7003;42935;50.966;16.992;2023-02-23T15:03:09;70;51;30
57049;PMS7003;42935;50.966;16.992;2023-02-23T15:06:35;70;49;31
57049;PMS7003;42935;50.966;16.992;2023-02-23T15:09:58;68;51;32
57049;PMS7003;42935;50.966;16.992;2023-02-23T15:13:30;69;51;32
57049;PMS7003;42935;50.966;16.992;2023-02-23T15:17:02;68;52;32
57049;PMS7003;42935;50.966;16.992;2023-02-23T15:20:31;68;50;32
57049;PMS7003;42935;50.966;16.992;2023-02-23T15:27:36;73;53;33
57049;PMS7003;42935;50.966;16.992;2023-02-23T15:31:01;71;55;34
57049;PMS7003;42935;50.966;16.992;2023-02-23T15:34:35;72;53;32
57049;PMS7003;42935;50.966;16.992;2023-02-23T15:37:58;75;56;34
57049;PMS7003;42935;50.966;16.992;2023-02-23T15:44:59;69;51;33
57049;PMS7003;42935;50.966;16.992;2023-02-23T15:48:29;71;54;34
57049;PMS7003;42935;50.966;16.992;2023-02-23T15:52:05;71;53;34
57049;PMS7003;42935;50.966;16.992;2023-02-23T15:55:26;74;53;33
57049;PMS7003;42935;50.966;16.992;2023-02-23T15:59:00;73;54;34
57049;PMS7003;42935;50.966;16.992;2023-02-23T16:02:36;77;56;34
57049;PMS7003;42935;50.966;16.992;2023-02-23T16:06:07;77;57;35
57049;PMS7003;42935;50.966;16.992;2023-02-23T16:09:46;80;59;37
57049;PMS7003;42935;50.966;16.992;2023-02-23T16:13:14;77;57;35
57049;PMS7003;42935;50.966;16.992;2023-02-23T16:16:38;78;58;36
57049;PMS7003;42935;50.966;16.992;2023-02-23T16:23:52;82;60;37
57049;PMS7003;42935;50.966;16.992;2023-02-23T16:27:22;81;61;37
57049;PMS7003;42935;50.966;16.992;2023-02-23T16:34:27;83;64;37
57049;PMS7003;42935;50.966;16.992;2023-02-23T16:38:00;79;59;37
57049;PMS7003;42935;50.966;16.992;2023-02-23T16:41:30;82;61;37
57049;PMS7003;42935;50.966;16.992;2023-02-23T16:44:59;80;60;36
57049;PMS7003;42935;50.966;16.992;2023-02-23T16:48:24;80;61;36
57049;PMS7003;42935;50.966;16.992;2023-02-23T16:51:46;83;62;36
57049;PMS7003;42935;50.966;16.992;2023-02-23T16:55:07;83;63;38
57049;PMS7003;42935;50.966;16.992;2023-02-23T16:58:34;78;61;36
57049;PMS7003;42935;50.966;16.992;2023-02-23T17:01:55;80;60;37
57049;PMS7003;42935;50.966;16.992;2023-02-23T17:05:18;78;57;37
57049;PMS7003;42935;50.966;16.992;2023-02-23T17:08:45;81;62;37
57049;PMS7003;42935;50.966;16.992;2023-02-23T17:12:05;80;59;36
57049;PMS7003;42935;50.966;16.992;2023-02-23T17:15:26;78;61;38
57049;PMS7003;42935;50.966;16.992;2023-02-23T17:18:49;82;61;38
57049;PMS7003;42935;50.966;16.992;2023-02-23T17:22:19;78;60;36
57049;PMS7003;42935;50.966;16.992;2023-02-23T17:25:44;79;64;36
57049;PMS7003;42935;50.966;16.992;2023-02-23T17:29:08;86;69;40
57049;PMS7003;42935;50.966;16.992;2023-02-23T17:32:34;83;66;39
57049;PMS7003;42935;50.966;16.992;2023-02-23T17:36:00;85;68;39
57049;PMS7003;42935;50.966;16.992;2023-02-23T17:39:29;83;68;39
57049;PMS7003;42935;50.966;16.992;2023-02-23T17:42:56;81;64;39
57049;PMS7003;42935;50.966;16.992;2023-02-23T17:46:26;83;65;39
57049;PMS7003;42935;50.966;16.992;2023-02-23T17:49:54;84;67;39
57049;PMS7003;42935;50.966;16.992;2023-02-23T17:53:16;87;69;38
57049;PMS7003;42935;50.966;16.992;2023-02-23T17:56:44;85;67;38
57049;PMS7003;42935;50.966;16.992;2023-02-23T18:00:16;80;62;37
57049;PMS7003;42935;50.966;16.992;2023-02-23T18:03:38;82;62;37
57049;PMS7003;42935;50.966;16.992;2023-02-23T18:07:02;82;62;36
57049;PMS7003;42935;50.966;16.992;2023-02-23T18:10:30;78;58;36
57049;PMS7003;42935;50.966;16.992;2023-02-23T18:13:54;70;53;33
57049;PMS7003;42935;50.966;16.992;2023-02-23T18:17:22;71;53;33
57049;PMS7003;42935;50.966;16.992;2023-02-23T18:20:49;74;54;33
57049;PMS7003;42935;50.966;16.992;2023-02-23T18:24:16;75;55;33
57049;PMS7003;42935;50.966;16.992;2023-02-23T18:27:47;76;57;34
57049;PMS7003;42935;50.966;16.992;2023-02-23T18:31:13;72;55;33
57049;PMS7003;42935;50.966;16.992;2023-02-23T18:34:45;71;52;32
57049;PMS7003;42935;50.966;16.992;2023-02-23T18:38:05;68;50;32
57049;PMS7003;42935;50.966;16.992;2023-02-23T18:41:36;69;51;31
57049;PMS7003;42935;50.966;16.992;2023-02-23T18:45:00;66;49;31
57049;PMS7003;42935;50.966;16.992;2023-02-23T18:48:27;66;49;30
57049;PMS7003;42935;50.966;16.992;2023-02-23T18:51:47;68;49;30
57049;PMS7003;42935;50.966;16.992;2023-02-23T18:55:09;64;49;30
57049;PMS7003;42935;50.966;16.992;2023-02-23T18:58:38;67;49;30
57049;PMS7003;42935;50.966;16.992;2023-02-23T19:02:01;65;47;30
57049;PMS7003;42935;50.966;16.992;2023-02-23T19:05:25;66;50;31
57049;PMS7003;42935;50.966;16.992;2023-02-23T19:08:54;63;48;31
57049;PMS7003;42935;50.966;16.992;2023-02-23T19:12:22;66;49;30
57049;PMS7003;42935;50.966;16.992;2023-02-23T19:15:51;70;51;30
57049;PMS7003;42935;50.966;16.992;2023-02-23T19:19:19;65;50;31
57049;PMS7003;42935;50.966;16.992;2023-02-23T19:22:40;71;52;32
57049;PMS7003;42935;50.966;16.992;2023-02-23T19:26:09;72;53;33
57049;PMS7003;42935;50.966;16.992;2023-02-23T19:29:34;74;54;33
57049;PMS7003;42935;50.966;16.992;2023-02-23T19:32:58;70;51;32
57049;PMS7003;42935;50.966;16.992;2023-02-23T19:36:26;74;53;32
57049;PMS7003;42935;50.966;16.992;2023-02-23T19:39:52;66;49;31
57049;PMS7003;42935;50.966;16.992;2023-02-23T19:43:20;65;50;30
57049;PMS7003;42935;50.966;16.992;2023-02-23T19:46:48;66;52;31
57049;PMS7003;42935;50.966;16.992;2023-02-23T19:50:10;62;47;30
57049;PMS7003;42935;50.966;16.992;2023-02-23T19:53:39;61;49;30
57049;PMS7003;42935;50.966;16.992;2023-02-23T19:57:10;65;49;30
57049;PMS7003;42935;50.966;16.992;2023-02-23T20:00:32;63;47;30
57049;PMS7003;42935;50.966;16.992;2023-02-23T20:03:59;63;47;29
57049;PMS7003;42935;50.966;16.992;2023-02-23T20:07:29;66;48;30
57049;PMS7003;42935;50.966;16.992;2023-02-23T20:10:53;64;49;30
57049;PMS7003;42935;50.966;16.992;2023-02-23T20:14:19;66;51;31
57049;PMS7003;42935;50.966;16.992;2023-02-23T20:17:48;71;53;31
57049;PMS7003;42935;50.966;16.992;2023-02-23T20:21:12;77;55;33
57049;PMS7003;42935;50.966;16.992;2023-02-23T20:24:40;81;58;35
57049;PMS7003;42935;50.966;16.992;2023-02-23T20:28:00;71;54;35
57049;PMS7003;42935;50.966;16.992;2023-02-23T20:31:33;80;58;35
57049;PMS7003;42935;50.966;16.992;2023-02-23T20:34:58;78;58;36
57049;PMS7003;42935;50.966;16.992;2023-02-23T20:38:21;75;57;36
57049;PMS7003;42935;50.966;16.992;2023-02-23T20:41:41;85;62;37
57049;PMS7003;42935;50.966;16.992;2023-02-23T20:45:04;86;63;38
57049;PMS7003;42935;50.966;16.992;2023-02-23T20:48:24;82;62;37
57049;PMS7003;42935;50.966;16.992;2023-02-23T20:51:47;82;61;37
57049;PMS7003;42935;50.966;16.992;2023-02-23T20:55:15;81;62;36
57049;PMS7003;42935;50.966;16.992;2023-02-23T20:58:41;79;58;36
57049;PMS7003;42935;50.966;16.992;2023-02-23T21:02:05;84;62;39
57049;PMS7003;42935;50.966;16.992;2023-02-23T21:05:32;92;72;44
57049;PMS7003;42935;50.966;16.992;2023-02-23T21:09:04;80;61;37
57049;PMS7003;42935;50.966;16.992;2023-02-23T21:12:36;78;58;36
57049;PMS7003;42935;50.966;16.992;2023-02-23T21:16:01;80;59;37
57049;PMS7003;42935;50.966;16.992;2023-02-23T21:19:29;81;58;36
57049;PMS7003;42935;50.966;16.992;2023-02-23T21:22:57;77;57;34
57049;PMS7003;42935;50.966;16.992;2023-02-23T21:26:22;74;55;34
57049;PMS7003;42935;50.966;16.992;2023-02-23T21:29:42;75;56;34
57049;PMS7003;42935;50.966;16.992;2023-02-23T21:33:11;79;58;34
57049;PMS7003;42935;50.966;16.992;2023-02-23T21:36:29;75;56;34
57049;PMS7003;42935;50.966;16.992;2023-02-23T21:39:49;78;56;34
57049;PMS7003;42935;50.966;16.992;2023-02-23T21:43:16;78;58;35
57049;PMS7003;42935;50.966;16.992;2023-02-23T21:46:43;81;58;35
57049;PMS7003;42935;50.966;16.992;2023-02-23T21:50:07;75;55;34
57049;PMS7003;42935;50.966;16.992;2023-02-23T21:53:29;74;55;34
57049;PMS7003;42935;50.966;16.992;2023-02-23T21:56:57;74;54;34
57049;PMS7003;42935;50.966;16.992;2023-02-23T22:00:24;74;56;33
57049;PMS7003;42935;50.966;16.992;2023-02-23T22:03:49;71;54;33
57049;PMS7003;42935;50.966;16.992;2023-02-23T22:07:16;77;55;34
57049;PMS7003;42935;50.966;16.992;2023-02-23T22:10:46;75;55;35
57049;PMS7003;42935;50.966;16.992;2023-02-23T22:14:06;70;53;34
57049;PMS7003;42935;50.966;16.992;2023-02-23T22:17:28;76;57;34
57049;PMS7003;42935;50.966;16.992;2023-02-23T22:20:58;75;56;34
57049;PMS7003;42935;50.966;16.992;2023-02-23T22:24:21;75;55;33
57049;PMS7003;42935;50.966;16.992;2023-02-23T22:27:40;79;56;34
57049;PMS7003;42935;50.966;16.992;2023-02-23T22:31:05;80;58;35
57049;PMS7003;42935;50.966;16.992;2023-02-23T22:34:37;79;59;35
57049;PMS7003;42935;50.966;16.992;2023-02-23T22:38:06;77;56;34
57049;PMS7003;42935;50.966;16.992;2023-02-23T22:41:30;73;54;34
57049;PMS7003;42935;50.966;16.992;2023-02-23T22:45:01;77;57;35
57049;PMS7003;42935;50.966;16.992;2023-02-23T22:48:23;79;58;35
57049;PMS7003;42935;50.966;16.992;2023-02-23T22:51:56;74;53;34
57049;PMS7003;42935;50.966;16.992;2023-02-23T22:55:23;76;55;33
57049;PMS7003;42935;50.966;16.992;2023-02-23T22:58:53;74;57;34
57049;PMS7003;42935;50.966;16.992;2023-02-23T23:02:26;71;53;33
57049;PMS7003;42935;50.966;16.992;2023-02-23T23:05:50;74;55;33
57049;PMS7003;42935;50.966;16.992;2023-02-23T23:09:18;73;54;33
57049;PMS7003;42935;50.966;16.992;2023-02-23T23:12:38;73;55;34
57049;PMS7003;42935;50.966;16.992;2023-02-23T23:16:00;74;53;32
57049;PMS7003;42935;50.966;16.992;2023-02-23T23:19:32;76;56;33
57049;PMS7003;42935;50.966;16.992;2023-02-23T23:23:03;75;55;34
57049;PMS7003;42935;50.966;16.992;2023-02-23T23:26:26;77;56;34
57049;PMS7003;42935;50.966;16.992;2023-02-23T23:29:48;74;54;33
57049;PMS7003;42935;50.966;16.992;2023-02-23T23:33:11;70;52;33
57049;PMS7003;42935;50.966;16.992;2023-02-23T23:36:37;68;52;33
57049;PMS7003;42935;50.966;16.992;2023-02-23T23:40:09;73;53;32
57049;PMS7003;42935;50.966;16.992;2023-02-23T23:43:32;73;54;33
57049;PMS7003;42935;50.966;16.992;2023-02-23T23:47:02;73;53;34
57049;PMS7003;42935;50.966;16.992;2023-02-23T23:50:26;71;54;33
57049;PMS7003;42935;50.966;16.992;2023-02-23T23:53:58;75;55;33
57049;PMS7003;42935;50.966;16.992;2023-02-23T23:57:17;75;53;32
